Time;durP1;ratioP1;P1;durP2;ratioP2;P2;SDS_P1;SDS_P2;PMS_P1;PMS_P2;Temp;Humidity;BMP_temperature;BMP_pressure;BME280_temperature;BME280_humidity;BME280_pressure;Samples;Min_cycle;Max_cycle;Signal;HPM_P1;HPM_P2
2023/03/29 00:03:44;;;;;;;1.63;1.52;;;;;;;1.66;41.59;98025.44;10396514;28;20032;-52
2023/03/29 00:08:44;;;;;;;4.68;1.80;;;;;;;1.83;41.78;98060.22;10395015;28;20129;-50
2023/03/29 00:13:43;;;;;;;7.97;3.13;;;;;;;1.50;41.25;98070.00;10397625;28;20116;-51
2023/03/29 00:18:44;;;;;;;2.88;1.95;;;;;;;1.56;41.31;98066.84;10427455;28;20040;-52
2023/03/29 00:23:43;;;;;;;1.83;1.50;;;;;;;1.57;41.16;98066.03;10446475;28;20444;-52
2023/03/29 00:28:42;;;;;;;2.65;1.70;;;;;;;1.29;40.95;98060.69;10389768;28;20084;-51
2023/03/29 00:33:41;;;;;;;3.78;1.55;;;;;;;1.44;41.09;98059.56;10404943;28;20111;-52
2023/03/29 00:38:40;;;;;;;1.77;1.55;;;;;;;1.44;41.85;98064.69;10403864;28;20063;-51
2023/03/29 00:43:51;;;;;;;;;;;;;;;1.21;41.45;98063.75;10400479;28;20063;-53
2023/03/29 00:48:52;;;;;;;2.67;1.70;;;;;;;0.99;41.95;98038.97;10436952;28;19951;-49
2023/03/29 00:53:56;;;;;;;3.25;2.08;;;;;;;1.11;42.08;98060.81;10426729;28;20152;-50
2023/03/29 00:59:01;;;;;;;2.47;1.48;;;;;;;0.87;42.26;98063.25;10445525;28;20056;-50
2023/03/29 01:04:07;;;;;;;5.57;3.13;;;;;;;0.88;41.93;98064.97;10415670;28;20489;-53
2023/03/29 01:09:11;;;;;;;39.67;18.90;;;;;;;0.70;41.92;98030.97;10395492;28;20116;-48
2023/03/29 01:14:34;;;;;;;7.53;3.92;;;;;;;0.89;41.68;98064.16;10402615;28;20573;-52
2023/03/29 01:19:41;;;;;;;5.00;2.70;;;;;;;1.04;42.10;98068.19;10385337;28;20497;-51
2023/03/29 01:24:51;;;;;;;10.13;5.00;;;;;;;0.89;42.30;98060.72;10390217;28;20056;-51
2023/03/29 01:30:05;;;;;;;8.10;4.55;;;;;;;1.04;42.08;98063.06;10388486;28;20084;-52
2023/03/29 01:35:12;;;;;;;5.90;2.70;;;;;;;0.68;42.44;98073.47;10403229;28;20063;-51
2023/03/29 01:40:11;;;;;;;7.50;3.60;;;;;;;0.75;42.69;98075.47;10410011;28;20063;-49
2023/03/29 01:45:28;;;;;;;9.43;3.88;;;;;;;0.52;43.11;98082.13;10404722;28;20524;-51
2023/03/29 01:50:40;;;;;;;38.10;20.80;;;;;;;0.66;43.38;98078.53;10398706;28;20056;-52
2023/03/29 01:55:43;;;;;;;10.80;5.43;;;;;;;0.86;43.15;98076.81;10396361;28;20091;-52
2023/03/29 02:00:44;;;;;;;23.90;14.52;;;;;;;0.81;42.96;98073.19;10399842;28;20908;-52
2023/03/29 02:05:45;;;;;;;7.28;3.05;;;;;;;0.67;43.40;98077.69;10412622;28;20803;-51
2023/03/29 02:10:47;;;;;;;13.18;9.48;;;;;;;0.79;43.21;98077.34;10419864;28;20818;-50
2023/03/29 02:15:46;;;;;;;10.27;3.33;;;;;;;0.79;43.27;98091.81;10447891;28;20071;-50
2023/03/29 02:20:49;;;;;;;3.55;2.20;;;;;;;0.75;43.34;98082.28;10449075;28;20066;-51
2023/03/29 02:25:52;;;;;;;7.28;4.18;;;;;;;0.66;43.87;98105.72;10414961;28;20060;-51
2023/03/29 02:31:06;;;;;;;2.85;2.05;;;;;;;0.32;43.41;98106.81;10407875;28;20107;-49
2023/03/29 02:36:12;;;;;;;4.28;3.10;;;;;;;0.44;43.74;98115.00;10407823;28;20900;-50
2023/03/29 02:41:11;;;;;;;9.10;3.88;;;;;;;0.53;42.91;98117.09;10404837;28;20060;-53
2023/03/29 02:46:13;;;;;;;3.20;2.60;;;;;;;0.60;43.21;98125.91;10426816;28;20501;-51
2023/03/29 02:51:19;;;;;;;9.32;3.75;;;;;;;0.49;43.94;98133.06;10406845;28;20052;-51
2023/03/29 02:56:19;;;;;;;5.40;3.33;;;;;;;0.72;43.72;98129.00;10405753;28;20127;-48
2023/03/29 03:01:19;;;;;;;4.88;2.97;;;;;;;0.68;43.37;98130.53;10406696;28;20525;-51
2023/03/29 03:06:18;;;;;;;3.83;2.50;;;;;;;0.67;43.76;98131.34;10406169;28;20067;-50
2023/03/29 03:11:17;;;;;;;5.90;2.53;;;;;;;0.73;44.01;98146.03;10400333;28;20023;-50
2023/03/29 03:16:15;;;;;;;4.50;2.78;;;;;;;0.71;43.60;98155.34;10405582;28;20119;-50
2023/03/29 03:21:14;;;;;;;4.53;3.30;;;;;;;0.60;43.82;98167.63;10406815;28;20055;-51
2023/03/29 03:26:16;;;;;;;7.25;3.97;;;;;;;0.58;44.82;98163.25;10383685;28;20029;-52
2023/03/29 03:31:16;;;;;;;4.13;2.75;;;;;;;0.52;44.71;98163.84;10396198;28;20537;-49
2023/03/29 03:36:15;;;;;;;5.40;3.15;;;;;;;0.51;45.12;98174.88;10391207;28;20131;-51
2023/03/29 03:41:14;;;;;;;4.82;2.72;;;;;;;0.52;44.69;98184.28;10389057;28;20033;-52
2023/03/29 03:46:14;;;;;;;8.43;3.88;;;;;;;0.56;44.62;98185.31;10391947;28;20549;-50
2023/03/29 03:51:13;;;;;;;5.10;2.78;;;;;;;0.35;44.40;98157.97;10391661;28;20075;-53
2023/03/29 03:56:12;;;;;;;4.93;3.10;;;;;;;0.32;44.49;98185.06;10389678;28;20124;-53
2023/03/29 04:01:11;;;;;;;6.95;4.03;;;;;;;-0.05;43.03;98125.53;10394961;28;20056;-53
2023/03/29 04:06:11;;;;;;;5.13;3.00;;;;;;;0.44;43.22;98185.63;10381546;28;20067;-50
2023/03/29 04:11:09;;;;;;;;;;;;;;;0.50;42.91;98196.13;10395070;28;20124;-52
2023/03/29 04:16:08;;;;;;;8.15;3.25;;;;;;;0.43;42.80;98176.22;10394237;28;19927;-53
2023/03/29 04:21:07;;;;;;;9.85;4.95;;;;;;;0.25;42.82;98166.91;10385908;28;20530;-51
2023/03/29 04:26:06;;;;;;;7.53;3.50;;;;;;;0.24;42.66;98151.50;10392260;28;20103;-52
2023/03/29 04:31:11;;;;;;;6.95;3.72;;;;;;;0.13;42.91;98137.41;10390374;28;20032;-52
2023/03/29 04:36:10;;;;;;;7.82;3.95;;;;;;;0.48;44.18;98197.72;10392899;28;20546;-51
2023/03/29 04:41:09;;;;;;;15.27;7.95;;;;;;;0.48;44.62;98195.19;10391161;28;20611;-50
2023/03/29 04:46:07;;;;;;;10.57;5.10;;;;;;;0.57;44.68;98207.47;10394816;28;20032;-52
2023/03/29 04:51:06;;;;;;;10.80;5.18;;;;;;;0.64;44.78;98212.06;10388288;28;20068;-52
2023/03/29 04:56:06;;;;;;;9.15;4.95;;;;;;;0.69;45.36;98218.25;10398529;28;20138;-49
2023/03/29 05:01:05;;;;;;;13.52;4.88;;;;;;;0.79;45.43;98217.84;10398215;28;20060;-52
2023/03/29 05:06:06;;;;;;;8.65;5.47;;;;;;;0.92;45.36;98221.84;10394725;28;20094;-51
2023/03/29 05:11:10;;;;;;;10.43;5.70;;;;;;;1.02;45.02;98224.00;10397352;28;20213;-51
2023/03/29 05:16:09;;;;;;;13.40;5.75;;;;;;;1.15;45.00;98220.28;10391241;28;20107;-51
2023/03/29 05:21:08;;;;;;;13.52;5.78;;;;;;;1.23;44.54;98202.72;10393285;28;20136;-51
2023/03/29 05:26:08;;;;;;;9.05;4.70;;;;;;;1.52;43.63;98232.94;10394770;28;20108;-51
2023/03/29 05:31:07;;;;;;;8.57;4.30;;;;;;;1.66;43.53;98235.22;10390983;28;20127;-51
2023/03/29 05:36:08;;;;;;;;;;;;;;;1.79;42.21;98242.59;10392272;28;20551;-50
2023/03/29 05:41:07;;;;;;;;;;;;;;;1.73;37.65;98242.34;10413125;28;19947;-49
2023/03/29 05:46:06;;;;;;;4.63;2.63;;;;;;;1.94;37.04;98262.81;10438580;28;20449;-49
2023/03/29 05:51:05;;;;;;;;;;;;;;;1.83;34.45;98274.28;10434033;28;20055;-51
2023/03/29 05:56:05;;;;;;;3.17;1.60;;;;;;;2.19;35.03;98251.03;10450496;28;19915;-50
2023/03/29 06:01:11;;;;;;;5.68;2.50;;;;;;;2.33;33.84;98272.94;10437318;28;20530;-52
2023/03/29 06:06:10;;;;;;;3.72;1.85;;;;;;;2.65;33.87;98263.03;10411583;28;20044;-51
2023/03/29 06:11:10;;;;;;;6.68;2.70;;;;;;;2.80;34.05;98256.81;10411285;28;20054;-51
2023/03/29 06:16:10;;;;;;;3.40;1.13;;;;;;;2.47;33.27;98292.28;10409156;28;20064;-50
2023/03/29 06:21:09;;;;;;;;;;;;;;;2.57;33.21;98288.38;10419353;28;20074;-50
2023/03/29 06:26:09;;;;;;;2.53;1.70;;;;;;;2.76;33.45;98292.53;10408484;28;20391;-50
2023/03/29 06:31:08;;;;;;;3.53;2.00;;;;;;;1.42;32.59;98120.00;10410879;28;20119;-49
2023/03/29 06:36:10;;;;;;;8.85;3.50;;;;;;;2.66;32.71;98278.50;10413839;28;20119;-52
2023/03/29 06:41:11;;;;;;;6.25;3.08;;;;;;;2.77;32.38;98268.66;10411272;28;21353;-52
2023/03/29 06:46:10;;;;;;;6.65;2.72;;;;;;;3.06;32.95;98284.25;10401737;28;20063;-50
2023/03/29 06:51:09;;;;;;;5.15;3.20;;;;;;;3.56;37.23;98292.88;10438673;28;20078;-49
2023/03/29 06:56:08;;;;;;;6.90;3.80;;;;;;;3.99;37.54;98268.69;10402456;28;20119;-48
2023/03/29 07:01:08;;;;;;;12.57;4.25;;;;;;;4.32;36.70;98279.19;10395484;28;20131;-50
2023/03/29 07:06:11;;;;;;;4.88;3.28;;;;;;;4.66;36.66;98285.38;10403461;28;20064;-52
2023/03/29 07:11:11;;;;;;;4.72;3.05;;;;;;;4.85;36.02;98290.28;10401941;28;20115;-51
2023/03/29 07:16:12;;;;;;;4.78;3.08;;;;;;;5.16;35.71;98291.22;10416586;28;20111;-51
2023/03/29 07:21:11;;;;;;;6.13;3.45;;;;;;;5.20;35.30;98287.00;10443652;28;20070;-49
2023/03/29 07:26:10;;;;;;;;;;;;;;;5.60;35.46;98294.13;10419180;28;20107;-48
2023/03/29 07:31:11;;;;;;;5.45;3.17;;;;;;;5.80;35.60;98286.09;10404048;28;20500;-51
2023/03/29 07:36:10;;;;;;;5.70;3.70;;;;;;;5.83;34.79;98279.31;10387862;28;20039;-51
2023/03/29 07:41:08;;;;;;;9.80;3.47;;;;;;;5.75;34.79;98278.25;10396450;28;20031;-51
2023/03/29 07:46:08;;;;;;;6.95;3.22;;;;;;;5.82;35.28;98274.13;10413732;28;20505;-51
2023/03/29 07:51:07;;;;;;;18.73;3.83;;;;;;;5.93;34.26;98280.41;10401319;28;20570;-50
2023/03/29 07:56:07;;;;;;;8.65;4.30;;;;;;;6.05;35.40;98270.44;10400161;28;20655;-51
2023/03/29 08:01:07;;;;;;;3.53;2.55;;;;;;;5.79;33.15;98262.06;10398313;28;20127;-51
2023/03/29 08:06:06;;;;;;;4.13;2.53;;;;;;;5.66;32.50;98254.81;10400970;28;20068;-52
2023/03/29 08:11:07;;;;;;;;;;;;;;;5.90;33.99;98255.44;10427374;28;20247;-51
2023/03/29 08:16:07;;;;;;;4.40;2.80;;;;;;;5.80;33.27;98256.06;10404764;28;19966;-51
2023/03/29 08:21:07;;;;;;;5.10;2.85;;;;;;;5.69;33.31;98195.69;10446549;28;20067;-50
2023/03/29 08:26:08;;;;;;;10.75;2.90;;;;;;;5.81;31.68;98233.75;10427358;28;20533;-52
2023/03/29 08:31:08;;;;;;;7.53;3.50;;;;;;;5.80;31.32;98239.75;10427669;28;20072;-51
2023/03/29 08:36:08;;;;;;;6.25;3.25;;;;;;;6.19;32.21;98237.28;10454619;28;20072;-53
2023/03/29 08:41:31;;;;;;;3.53;2.40;;;;;;;6.50;30.58;98232.84;10452954;28;20094;-51
2023/03/29 08:46:49;;;;;;;5.43;3.30;;;;;;;5.75;28.80;98265.38;10419097;28;20162;-50
2023/03/29 08:52:01;;;;;;;4.57;3.08;;;;;;;5.29;29.39;98248.69;10406582;28;20557;-50
2023/03/29 08:57:09;;;;;;;14.10;5.72;;;;;;;5.17;27.69;98248.34;10391637;28;20060;-52
2023/03/29 09:02:19;;;;;;;5.47;2.00;;;;;;;5.02;27.32;98289.94;10443466;28;20067;-51
2023/03/29 09:07:19;;;;;;;3.90;2.33;;;;;;;5.14;25.86;98241.41;10427222;28;20068;-52
2023/03/29 09:12:50;;;;;;;3.95;2.00;;;;;;;5.41;27.44;98227.56;10429077;28;20063;-51
2023/03/29 09:17:54;;;;;;;3.47;1.77;;;;;;;5.87;24.78;98223.63;10455339;28;20070;-50
2023/03/29 09:23:11;;;;;;;2.75;1.88;;;;;;;5.64;23.52;98235.88;10455014;28;20070;-52
2023/03/29 09:28:20;;;;;;;4.25;1.60;;;;;;;5.87;23.21;98206.44;10415115;28;20079;-51
2023/03/29 09:33:22;;;;;;;3.72;1.33;;;;;;;5.71;22.99;98219.78;10413158;28;20130;-50
2023/03/29 09:38:21;;;;;;;2.58;1.45;;;;;;;5.92;24.24;98212.56;10424834;28;20052;-51
2023/03/29 09:43:26;;;;;;;;;;;;;;;5.91;24.99;98216.00;10410779;28;20132;-51
2023/03/29 09:48:29;;;;;;;4.45;1.80;;;;;;;5.87;22.87;98214.16;10427386;28;20058;-50
2023/03/29 09:53:28;;;;;;;2.55;1.75;;;;;;;5.93;24.90;98209.19;10435605;28;20106;-52
2023/03/29 09:58:31;;;;;;;4.28;1.80;;;;;;;6.23;24.22;98208.16;10431700;28;20094;-52
2023/03/29 10:03:32;;;;;;;4.10;2.20;;;;;;;5.93;24.52;98139.63;10421172;28;20542;-50
2023/03/29 10:08:34;;;;;;;2.58;1.30;;;;;;;6.25;22.96;98214.22;10428748;28;20540;-50
2023/03/29 10:13:41;;;;;;;5.05;2.70;;;;;;;5.80;23.18;98134.16;10406984;28;20075;-51
2023/03/29 10:18:42;;;;;;;2.03;1.60;;;;;;;6.46;24.34;98194.94;10443141;28;20633;-52
2023/03/29 10:23:42;;;;;;;2.75;1.48;;;;;;;6.66;23.18;98195.38;10402315;28;20651;-52
2023/03/29 10:28:41;;;;;;;4.63;1.98;;;;;;;7.02;23.18;98185.81;10423346;28;20517;-52
2023/03/29 10:33:41;;;;;;;3.00;1.58;;;;;;;6.77;22.38;98183.56;10413116;28;20057;-52
2023/03/29 10:38:40;;;;;;;4.57;2.30;;;;;;;7.33;23.01;98173.50;10396780;28;20549;-52
2023/03/29 10:43:49;;;;;;;3.53;1.70;;;;;;;7.39;21.97;98171.03;10383156;28;20394;-52
2023/03/29 10:48:56;;;;;;;3.08;1.90;;;;;;;7.38;24.16;98187.38;10415639;28;20075;-52
2023/03/29 10:53:57;;;;;;;5.97;2.15;;;;;;;7.50;26.04;98160.94;10402316;28;20135;-52
2023/03/29 10:59:15;;;;;;;2.97;1.92;;;;;;;7.27;22.46;98160.47;10415052;28;20079;-52
2023/03/29 11:04:41;;;;;;;5.50;2.30;;;;;;;7.71;22.87;98154.38;10411438;28;20072;-51
2023/03/29 11:10:03;;;;;;;2.75;1.60;;;;;;;7.92;24.09;98144.41;10388460;28;20187;-53
2023/03/29 11:15:18;;;;;;;3.47;2.42;;;;;;;7.95;23.64;98146.19;10378964;28;20127;-52
2023/03/29 11:20:27;;;;;;;5.18;2.67;;;;;;;7.82;25.25;98152.84;10425414;28;20068;-51
2023/03/29 11:25:44;;;;;;;6.30;2.40;;;;;;;7.86;25.43;98139.13;10402345;28;20078;-50
2023/03/29 11:30:54;;;;;;;3.65;2.22;;;;;;;8.00;25.56;98135.06;10407193;28;20067;-52
2023/03/29 11:36:08;;;;;;;4.25;1.75;;;;;;;8.09;25.53;98126.56;10421283;28;20069;-53
2023/03/29 11:41:07;;;;;;;3.45;1.60;;;;;;;8.25;24.31;98125.94;10418588;28;20072;-54
2023/03/29 11:46:29;;;;;;;2.88;2.13;;;;;;;8.48;24.14;98126.28;10399267;28;20070;-53
2023/03/29 11:51:36;;;;;;;3.08;1.58;;;;;;;8.33;23.06;98115.72;10417750;28;20489;-53
2023/03/29 11:56:42;;;;;;;3.58;2.33;;;;;;;8.45;23.42;98115.88;10415221;28;21448;-53
2023/03/29 12:01:51;;;;;;;3.47;2.20;;;;;;;8.49;22.84;98120.25;10426174;28;20075;-52
2023/03/29 12:07:12;;;;;;;4.32;2.40;;;;;;;8.73;23.09;98105.88;10427911;28;20051;-53
2023/03/29 12:12:22;;;;;;;3.50;2.40;;;;;;;8.68;22.96;98120.47;10403626;28;20076;-52
2023/03/29 12:17:29;;;;;;;5.35;2.13;;;;;;;8.67;22.41;98116.16;10427187;28;20083;-52
2023/03/29 12:22:28;;;;;;;3.65;2.22;;;;;;;8.73;22.72;98121.41;10409574;28;20068;-52
2023/03/29 12:27:36;;;;;;;4.35;1.70;;;;;;;8.82;21.70;98110.28;10408972;28;20071;-52
2023/03/29 12:32:45;;;;;;;1.58;1.20;;;;;;;8.75;20.43;98108.47;10425075;28;20875;-52
2023/03/29 12:38:03;;;;;;;3.60;1.80;;;;;;;8.86;21.82;98137.94;10432643;28;20067;-53
2023/03/29 12:43:06;;;;;;;3.95;1.90;;;;;;;8.77;21.73;98106.78;10393964;28;20072;-52
2023/03/29 12:48:07;;;;;;;3.85;1.85;;;;;;;8.69;21.72;98109.25;10397801;28;20127;-53
2023/03/29 12:53:12;;;;;;;3.70;2.22;;;;;;;8.62;22.60;98110.03;10415966;28;20091;-52
2023/03/29 12:58:39;;;;;;;5.70;2.30;;;;;;;8.76;21.16;98120.56;10436661;28;20103;-52
2023/03/29 13:03:38;;;;;;;3.63;2.03;;;;;;;8.92;18.70;98115.56;10398826;28;20131;-51
2023/03/29 13:08:41;;;;;;;3.42;2.17;;;;;;;9.07;20.41;98111.44;10419082;28;20112;-52
2023/03/29 13:13:41;;;;;;;3.92;2.33;;;;;;;8.94;19.26;98120.78;10423376;28;20071;-53
2023/03/29 13:18:54;;;;;;;2.13;1.77;;;;;;;8.99;19.77;98119.09;10403869;28;20119;-53
2023/03/29 13:24:26;;;;;;;3.50;1.90;;;;;;;8.98;19.43;98101.84;10408161;28;20083;-52
2023/03/29 13:29:46;;;;;;;8.02;2.17;;;;;;;9.21;18.56;98077.91;10419599;28;20080;-53
2023/03/29 13:34:57;;;;;;;4.32;2.08;;;;;;;9.08;18.09;98051.03;10407921;28;20067;-53
2023/03/29 13:39:56;;;;;;;5.55;2.47;;;;;;;9.42;18.43;98111.81;10438085;28;20060;-53
2023/03/29 13:45:12;;;;;;;4.78;2.75;;;;;;;9.26;18.81;98104.72;10415533;28;20079;-52
2023/03/29 13:50:16;;;;;;;5.18;3.00;;;;;;;9.42;18.51;98097.97;10413402;28;20068;-52
2023/03/29 13:55:31;;;;;;;8.32;3.78;;;;;;;9.57;17.79;98095.53;10404454;28;20115;-52
2023/03/29 14:00:40;;;;;;;7.03;3.30;;;;;;;9.56;17.71;98096.41;10418007;28;20071;-52
2023/03/29 14:05:55;;;;;;;6.82;3.50;;;;;;;9.55;18.62;98094.66;10433158;28;20501;-52
2023/03/29 14:10:55;;;;;;;5.50;3.10;;;;;;;9.53;18.42;98101.53;10418583;28;20072;-52
2023/03/29 14:16:09;;;;;;;4.15;2.58;;;;;;;9.43;18.01;98104.91;10410729;28;20071;-52
2023/03/29 14:21:11;;;;;;;2.92;1.60;;;;;;;9.24;18.29;98109.88;10428762;28;20075;-52
2023/03/29 14:26:14;;;;;;;5.40;2.60;;;;;;;9.34;19.06;98096.19;10403291;28;20075;-53
2023/03/29 14:31:21;;;;;;;6.32;2.75;;;;;;;9.35;18.24;98103.13;10430231;28;20861;-53
2023/03/29 14:36:21;;;;;;;3.72;2.60;;;;;;;9.37;18.01;98092.75;10424294;28;20687;-56
2023/03/29 14:41:21;;;;;;;5.45;2.60;;;;;;;9.29;18.56;98097.88;10427827;28;20076;-54
2023/03/29 14:46:21;;;;;;;14.25;7.07;;;;;;;9.30;18.11;98096.16;10395209;28;20166;-53
2023/03/29 14:51:22;;;;;;;5.43;2.95;;;;;;;8.91;17.92;98048.28;10391503;28;20115;-53
2023/03/29 14:56:24;;;;;;;4.70;2.42;;;;;;;9.37;17.55;98086.72;10381211;28;20076;-52
2023/03/29 15:01:24;;;;;;;5.55;2.70;;;;;;;9.36;17.16;98135.06;10385395;28;20139;-53
2023/03/29 15:06:25;;;;;;;8.38;4.03;;;;;;;9.35;18.01;98120.41;10400932;28;20540;-52
2023/03/29 15:11:26;;;;;;;1.85;1.60;;;;;;;9.28;17.96;98111.69;10391465;28;20064;-52
2023/03/29 15:16:29;;;;;;;4.50;2.08;;;;;;;8.71;18.04;98097.22;10387558;28;20805;-53
2023/03/29 15:21:32;;;;;;;3.35;1.83;;;;;;;8.80;17.70;98120.63;10419061;28;20072;-54
2023/03/29 15:26:34;;;;;;;6.18;3.17;;;;;;;8.90;18.16;98131.94;10427804;28;20791;-53
2023/03/29 15:31:36;;;;;;;4.97;2.95;;;;;;;8.56;18.19;98122.91;10428734;28;20442;-53
2023/03/29 15:36:41;;;;;;;6.95;2.95;;;;;;;8.71;17.54;98123.94;10419946;28;20115;-52
2023/03/29 15:41:42;;;;;;;10.05;3.42;;;;;;;8.72;18.47;98119.66;10411616;28;20132;-52
2023/03/29 15:46:41;;;;;;;6.32;3.42;;;;;;;8.87;19.13;98145.72;10408932;28;20052;-53
2023/03/29 15:51:40;;;;;;;;;;;;;;;8.91;20.41;98142.31;10407126;28;20124;-52
2023/03/29 15:56:49;;;;;;;6.10;3.30;;;;;;;8.91;20.64;98152.66;10414109;28;19960;-53
2023/03/29 16:01:48;;;;;;;12.25;5.88;;;;;;;8.73;20.21;98126.56;10426368;28;20155;-52
2023/03/29 16:06:52;;;;;;;8.38;4.40;;;;;;;8.93;20.33;98150.97;10384408;28;20154;-52
2023/03/29 16:11:51;;;;;;;7.55;3.90;;;;;;;8.57;19.80;98151.38;10384415;28;20120;-53
2023/03/29 16:16:52;;;;;;;6.72;3.58;;;;;;;8.49;19.50;98156.44;10383821;28;20416;-53
2023/03/29 16:21:52;;;;;;;3.95;2.40;;;;;;;8.17;20.45;98153.41;10399590;28;20156;-52
2023/03/29 16:26:52;;;;;;;7.72;4.85;;;;;;;8.16;20.47;98143.06;10387387;28;20119;-52
2023/03/29 16:31:52;;;;;;;12.15;6.38;;;;;;;8.25;20.16;98162.16;10392205;28;20498;-52
2023/03/29 16:36:51;;;;;;;11.95;7.05;;;;;;;8.17;20.31;98170.63;10401337;28;20055;-52
2023/03/29 16:41:50;;;;;;;11.55;7.47;;;;;;;8.08;19.94;98156.72;10433968;28;20075;-52
2023/03/29 16:46:52;;;;;;;10.65;5.88;;;;;;;8.02;21.18;98174.72;10428117;28;20092;-53
2023/03/29 16:51:51;;;;;;;9.23;5.18;;;;;;;7.82;21.42;98181.28;10415949;28;20059;-51
2023/03/29 16:56:50;;;;;;;7.75;4.30;;;;;;;7.75;22.47;98187.19;10423922;28;20063;-52
2023/03/29 17:01:49;;;;;;;10.45;5.55;;;;;;;7.60;23.03;98186.06;10424218;28;20032;-51
2023/03/29 17:06:48;;;;;;;11.05;6.07;;;;;;;7.50;23.47;98186.75;10426458;28;20064;-52
2023/03/29 17:11:47;;;;;;;14.50;7.95;;;;;;;7.33;24.21;98193.28;10412840;28;20065;-52
2023/03/29 17:16:46;;;;;;;11.95;8.00;;;;;;;7.24;24.66;98205.19;10428605;28;20072;-51
2023/03/29 17:21:45;;;;;;;12.35;6.07;;;;;;;7.29;24.99;98209.53;10417321;28;20028;-53
2023/03/29 17:26:44;;;;;;;21.80;11.00;;;;;;;7.24;25.64;98220.66;10402954;28;20238;-52
2023/03/29 17:31:46;;;;;;;17.25;10.13;;;;;;;7.17;26.11;98218.81;10401182;28;20347;-53
2023/03/29 17:36:45;;;;;;;20.65;12.50;;;;;;;6.10;26.76;98065.31;10395528;28;20490;-50
2023/03/29 17:41:46;;;;;;;13.50;7.90;;;;;;;7.05;26.49;98223.69;10423264;28;20477;-52
2023/03/29 17:46:45;;;;;;;12.82;8.73;;;;;;;6.51;26.09;98141.75;10414712;28;20067;-53
2023/03/29 17:51:44;;;;;;;;;;;;;;;7.12;26.32;98240.19;10434127;28;20517;-53
2023/03/29 17:56:43;;;;;;;13.25;7.72;;;;;;;7.12;26.27;98245.34;10403116;28;19923;-52
2023/03/29 18:01:42;;;;;;;13.52;7.07;;;;;;;6.98;26.47;98242.47;10406985;28;20037;-53
2023/03/29 18:06:41;;;;;;;13.90;7.90;;;;;;;6.93;25.89;98250.13;10393235;28;20056;-52
2023/03/29 18:11:40;;;;;;;11.70;6.88;;;;;;;6.82;26.23;98257.66;10408323;28;20582;-52
2023/03/29 18:16:40;;;;;;;14.00;7.95;;;;;;;6.67;27.25;98270.19;10396877;28;20043;-52
2023/03/29 18:21:39;;;;;;;22.65;12.57;;;;;;;6.59;27.06;98261.41;10405873;28;20504;-50
2023/03/29 18:26:38;;;;;;;22.98;13.10;;;;;;;6.57;27.51;98276.84;10403091;28;20126;-52
2023/03/29 18:31:37;;;;;;;20.80;11.98;;;;;;;6.52;27.58;98272.44;10428502;28;20178;-54
2023/03/29 18:36:37;;;;;;;18.85;11.60;;;;;;;6.20;27.39;98228.72;10409994;28;20036;-52
2023/03/29 18:41:38;;;;;;;;;;;;;;;6.48;27.80;98291.22;10436262;28;20070;-53
2023/03/29 18:46:37;;;;;;;22.35;11.55;;;;;;;6.34;27.91;98285.75;10376664;28;20186;-52
2023/03/29 18:51:36;;;;;;;25.75;10.25;;;;;;;6.19;28.97;98281.09;10369244;28;20084;-52
2023/03/29 18:56:35;;;;;;;21.48;10.63;;;;;;;6.10;30.30;98297.19;10435766;28;20136;-52
2023/03/29 19:01:34;;;;;;;24.13;11.90;;;;;;;5.98;29.82;98295.16;10409473;28;20103;-52
2023/03/29 19:06:34;;;;;;;24.73;12.23;;;;;;;5.84;30.65;98295.66;10397774;28;20356;-51
2023/03/29 19:11:34;;;;;;;30.90;16.17;;;;;;;5.74;31.67;98284.22;10398119;28;20068;-52
2023/03/29 19:16:34;;;;;;;37.38;21.17;;;;;;;5.57;31.52;98300.91;10389165;28;20092;-51
2023/03/29 19:21:33;;;;;;;45.22;24.60;;;;;;;5.34;32.15;98281.44;10391237;28;20068;-52
2023/03/29 19:26:32;;;;;;;42.45;23.30;;;;;;;5.20;32.38;98295.59;10412247;28;20504;-52
2023/03/29 19:31:32;;;;;;;37.33;21.42;;;;;;;5.12;32.12;98303.09;10397563;28;20498;-51
2023/03/29 19:36:31;;;;;;;26.05;14.23;;;;;;;4.89;32.28;98281.81;10402923;28;20558;-50
2023/03/29 19:41:30;;;;;;;21.60;11.52;;;;;;;4.14;32.76;98181.84;10402387;28;20075;-52
2023/03/29 19:46:30;;;;;;;18.65;9.32;;;;;;;4.62;33.16;98297.28;10399432;28;20025;-51
2023/03/29 19:51:29;;;;;;;14.80;8.35;;;;;;;4.59;33.03;98289.44;10438043;28;20071;-51
2023/03/29 19:56:28;;;;;;;16.27;8.30;;;;;;;4.42;33.10;98293.22;10401196;28;20091;-50
2023/03/29 20:01:30;;;;;;;16.00;9.10;;;;;;;4.39;33.27;98285.41;10402162;28;20028;-50
2023/03/29 20:06:29;;;;;;;38.72;21.83;;;;;;;4.31;33.99;98307.41;10402006;28;20490;-50
2023/03/29 20:11:28;;;;;;;49.28;26.45;;;;;;;4.14;35.57;98289.75;10401839;28;20516;-52
2023/03/29 20:16:28;;;;;;;63.70;41.85;;;;;;;4.02;36.26;98299.63;10424149;28;20040;-50
2023/03/29 20:21:28;;;;;;;40.40;25.70;;;;;;;3.96;36.36;98295.13;10409929;28;20494;-52
2023/03/29 20:26:27;;;;;;;35.05;18.10;;;;;;;3.71;36.92;98302.84;10409307;28;20440;-52
2023/03/29 20:31:28;;;;;;;25.75;13.73;;;;;;;3.56;36.63;98303.16;10409789;28;20478;-52
2023/03/29 20:36:29;;;;;;;26.05;12.88;;;;;;;3.49;36.56;98314.00;10409037;28;20124;-52
2023/03/29 20:41:28;;;;;;;25.02;12.18;;;;;;;3.48;36.36;98299.44;10409001;28;20068;-50
2023/03/29 20:46:33;;;;;;;24.50;12.32;;;;;;;3.28;37.06;98314.97;10409123;28;20027;-50
2023/03/29 20:51:32;;;;;;;26.45;12.85;;;;;;;3.28;37.36;98308.97;10408753;28;20064;-52
2023/03/29 20:56:37;;;;;;;46.72;27.92;;;;;;;3.11;38.11;98311.78;10408023;28;20024;-50
2023/03/29 21:01:39;;;;;;;46.22;24.30;;;;;;;2.68;37.68;98250.38;10407060;28;20493;-49
2023/03/29 21:06:38;;;;;;;38.95;20.92;;;;;;;3.02;38.51;98311.44;10449429;28;20067;-52
2023/03/29 21:11:38;;;;;;;56.10;31.95;;;;;;;2.76;40.56;98293.38;10407928;28;20075;-52
2023/03/29 21:16:40;;;;;;;43.58;22.27;;;;;;;2.75;39.61;98327.53;10440649;28;20131;-52
2023/03/29 21:21:40;;;;;;;28.83;14.38;;;;;;;2.65;40.06;98324.53;10407877;28;20075;-51
2023/03/29 21:26:40;;;;;;;32.15;17.13;;;;;;;2.37;40.48;98303.84;10407469;28;20462;-52
2023/03/29 21:31:39;;;;;;;27.15;12.90;;;;;;;2.45;39.97;98313.53;10409798;28;20072;-51
2023/03/29 21:36:39;;;;;;;26.25;11.50;;;;;;;2.25;40.93;98325.50;10409173;28;20159;-52
2023/03/29 21:41:38;;;;;;;;;;;;;;;2.30;40.56;98309.53;10410257;28;20078;-52
2023/03/29 21:46:37;;;;;;;15.27;7.57;;;;;;;2.04;40.89;98305.88;10409910;28;19964;-49
2023/03/29 21:51:36;;;;;;;14.43;8.63;;;;;;;2.21;40.94;98321.06;10444268;28;20032;-51
2023/03/29 21:56:36;;;;;;;19.17;8.50;;;;;;;2.33;40.70;98313.91;10410977;28;20050;-50
2023/03/29 22:01:35;;;;;;;12.43;6.18;;;;;;;2.34;40.93;98316.50;10410283;28;20541;-52
2023/03/29 22:06:34;;;;;;;16.02;8.00;;;;;;;2.45;40.95;98318.66;10409501;28;20107;-51
2023/03/29 22:11:33;;;;;;;14.80;7.93;;;;;;;2.49;40.83;98316.25;10406851;28;20055;-50
2023/03/29 22:16:32;;;;;;;20.45;11.60;;;;;;;2.44;42.59;98320.34;10405132;28;20070;-52
2023/03/29 22:27:27;;;;;;;19.38;10.23;;;;;;;2.32;43.20;98314.69;10423589;28;20522;-51
2023/03/29 22:32:28;;;;;;;21.42;11.95;;;;;;;2.31;42.48;98320.66;10404533;28;20501;-53
2023/03/29 22:37:28;;;;;;;25.77;13.07;;;;;;;2.28;42.58;98320.53;10405749;28;20068;-52
2023/03/29 22:42:27;;;;;;;46.88;25.55;;;;;;;2.23;43.80;98314.31;10408809;28;20052;-52
2023/03/29 22:47:26;;;;;;;37.95;21.25;;;;;;;2.00;45.04;98298.91;10406883;28;20012;-52
2023/03/29 22:52:25;;;;;;;41.05;21.40;;;;;;;1.82;45.53;98314.38;10407924;28;20060;-52
2023/03/29 22:57:24;;;;;;;25.77;13.30;;;;;;;1.78;45.77;98329.53;10407469;28;20044;-52
2023/03/29 23:02:23;;;;;;;27.92;15.95;;;;;;;1.65;46.03;98336.69;10407566;28;20056;-52
2023/03/29 23:07:22;;;;;;;25.75;14.10;;;;;;;1.63;45.74;98340.84;10422414;28;20028;-52
2023/03/29 23:12:22;;;;;;;26.30;13.48;;;;;;;1.51;46.36;98335.22;10407413;28;20489;-50
2023/03/29 23:17:21;;;;;;;19.58;10.48;;;;;;;1.29;47.71;98341.94;10387902;28;20128;-50
2023/03/29 23:22:21;;;;;;;19.48;11.20;;;;;;;1.32;47.44;98338.63;10407384;28;20024;-52
2023/03/29 23:27:20;;;;;;;14.43;7.15;;;;;;;1.29;47.56;98341.94;10406486;28;20075;-51
2023/03/29 23:32:19;;;;;;;13.02;4.97;;;;;;;1.02;47.97;98335.56;10405791;28;20119;-52
2023/03/29 23:37:18;;;;;;;14.35;5.25;;;;;;;1.03;47.85;98334.75;10405426;28;20063;-52
2023/03/29 23:42:17;;;;;;;7.72;4.25;;;;;;;0.99;47.75;98331.19;10406858;28;20112;-52
2023/03/29 23:47:16;;;;;;;10.75;5.65;;;;;;;0.75;48.25;98305.38;10403485;28;20028;-52